Orion — WCC9851 — position and weather

sailwx.info

Track history (hours):
 
Tides and Currents Weather Stations Pressure Air Temp Water Temp Dewpoint Dewpoint Depression Visibility Wind Speed Wind Dir Waves Ship Positions

Orion

Owner: CROSS LINK INC, SAN FRANCISCO, CA. More information available from US FCC via Universal Licensing System and Coast Guard Vessel Documentation Center.

Last reported at 2018-Jun-14 04:02 UTC. Time now 2018-Jun-19 08:31 UTC.
Position N 37°46' W 122°23'.

; draft 3.7 m.

Type: Tug. MMSI: 366969470.

Date/timePositionNaut miles runAvg speedWind from/ knotsBaromVisibWave heightAir tempDewpointWater temp
2018-Jun-14 04:02N 37°46' W 122°23'0 0.2
2018-Jun-14 04:00N 37°46' W 122°23'0 0.3
2018-Jun-14 03:30N 37°47' W 122°23'0 0.6
2018-Jun-14 03:00N 37°47' W 122°23'1 2.7
2018-Jun-14 02:31N 37°45' W 122°22'3 6.9
2018-Jun-14 02:00N 37°42' W 122°20'1 0.0
2018-Jun-13 05:55N 37°42' W 122°20'3 8.2
2018-Jun-13 05:31N 37°45' W 122°22'2 4.1
2018-Jun-13 05:00N 37°46' W 122°23'0 0.1
2018-Jun-13 04:30N 37°46' W 122°23'  
2018-Jun-10 07:51N 37°46' W 122°23'0 0.1
2018-Jun-10 07:30N 37°46' W 122°23'1 2.1
2018-Jun-10 07:00N 37°46' W 122°22'0 0.1
2018-Jun-10 06:30N 37°46' W 122°22'0 0.2
2018-Jun-10 06:00N 37°46' W 122°21'0 0.4
2018-Jun-10 05:31N 37°46' W 122°21'0 0.2
2018-Jun-10 05:00N 37°46' W 122°22'0 0.0
2018-Jun-10 04:30N 37°46' W 122°22'0 0.1
2018-Jun-10 04:00N 37°46' W 122°21'0 0.4
2018-Jun-10 03:30N 37°46' W 122°22'1 2.2
2018-Jun-10 03:00N 37°46' W 122°23'2 3.2
2018-Jun-10 02:30N 37°45' W 122°23'0 0.2
2018-Jun-10 02:00N 37°45' W 122°23'1 2.8
2018-Jun-10 01:31N 37°46' W 122°22'0 0.4
2018-Jun-10 01:01N 37°46' W 122°22'0 0.0
2018-Jun-10 00:30N 37°46' W 122°22'0 0.0
2018-Jun-10 00:00N 37°46' W 122°22'0 0.1
2018-Jun-09 23:30N 37°46' W 122°21'0 0.1
2018-Jun-09 23:01N 37°46' W 122°21'0 0.2
2018-Jun-09 22:30N 37°46' W 122°22'0 0.1
2018-Jun-09 22:00N 37°46' W 122°22'0 0.1
2018-Jun-09 21:30N 37°46' W 122°22'0 0.0
2018-Jun-09 21:01N 37°46' W 122°22'0 0.1
2018-Jun-09 20:30N 37°46' W 122°22'1 2.6
2018-Jun-09 20:00N 37°45' W 122°22'1 1.3
2018-Jun-09 19:30N 37°45' W 122°23'0 0.0
2018-Jun-09 19:00N 37°45' W 122°23'0 0.0
2018-Jun-09 18:30N 37°45' W 122°23'0 0.0
2018-Jun-09 18:00N 37°45' W 122°23'0 0.0
2018-Jun-09 17:30N 37°45' W 122°23'0 0.0
2018-Jun-09 17:00N 37°45' W 122°23'0 0.4
2018-Jun-09 16:30N 37°45' W 122°23'  
2018-Jun-07 04:03N 37°46' W 122°23'0 0.0
2018-Jun-07 04:00N 37°46' W 122°23'0 0.1
2018-Jun-07 03:30N 37°46' W 122°23'3 5.3
2018-Jun-07 03:00N 37°44' W 122°21'4 8.1
2018-Jun-07 02:30N 37°40' W 122°20'4 7.7
2018-Jun-07 02:00N 37°37' W 122°17'7 1.4
2018-Jun-06 20:52N 37°31' W 122°13'0 0.0
2018-Jun-06 20:27N 37°31' W 122°13'0 0.0
2018-Jun-06 15:43N 37°31' W 122°13'0 0.0
2018-Jun-06 15:16N 37°31' W 122°13'0 0.0
2018-Jun-06 13:57N 37°31' W 122°13'0 0.0
2018-Jun-06 08:30N 37°31' W 122°13'3 5.1
2018-Jun-06 08:00N 37°33' W 122°12'9 5.9
2018-Jun-06 06:33N 37°40' W 122°19'1 6.0
2018-Jun-06 06:23N 37°41' W 122°20'2 6.0
2018-Jun-06 06:00N 37°43' W 122°21'3 5.9
2018-Jun-06 05:30N 37°46' W 122°22'1 2.1
2018-Jun-06 05:00N 37°46' W 122°23'0 0.2
2018-Jun-06 04:30N 37°46' W 122°23'  
Track history (hours):
 
Tides and Currents Weather Stations Pressure Air Temp Water Temp Dewpoint Dewpoint Depression Visibility Wind Speed Wind Dir Waves Ship Positions

Orion

Owner: CROSS LINK INC, SAN FRANCISCO, CA. More information available from US FCC via Universal Licensing System and Coast Guard Vessel Documentation Center.

Last reported at 2018-Jun-14 04:02 UTC. Time now 2018-Jun-19 08:31 UTC.
Position N 37°46' W 122°23'.

; draft 3.7 m.

Type: Tug. MMSI: 366969470.

Date/timePositionNaut miles runAvg speedWind from/ knotsBaromVisibWave heightAir tempDewpointWater temp
2018-Jun-14 04:02N 37°46' W 122°23'0 0.2
2018-Jun-14 04:00N 37°46' W 122°23'0 0.3
2018-Jun-14 03:30N 37°47' W 122°23'0 0.6
2018-Jun-14 03:00N 37°47' W 122°23'1 2.7
2018-Jun-14 02:31N 37°45' W 122°22'3 6.9
2018-Jun-14 02:00N 37°42' W 122°20'1 0.0
2018-Jun-13 05:55N 37°42' W 122°20'3 8.2
2018-Jun-13 05:31N 37°45' W 122°22'2 4.1
2018-Jun-13 05:00N 37°46' W 122°23'0 0.1
2018-Jun-13 04:30N 37°46' W 122°23'  
2018-Jun-10 07:51N 37°46' W 122°23'0 0.1
2018-Jun-10 07:30N 37°46' W 122°23'1 2.1
2018-Jun-10 07:00N 37°46' W 122°22'0 0.1
2018-Jun-10 06:30N 37°46' W 122°22'0 0.2
2018-Jun-10 06:00N 37°46' W 122°21'0 0.4
2018-Jun-10 05:31N 37°46' W 122°21'0 0.2
2018-Jun-10 05:00N 37°46' W 122°22'0 0.0
2018-Jun-10 04:30N 37°46' W 122°22'0 0.1
2018-Jun-10 04:00N 37°46' W 122°21'0 0.4
2018-Jun-10 03:30N 37°46' W 122°22'1 2.2
2018-Jun-10 03:00N 37°46' W 122°23'2 3.2
2018-Jun-10 02:30N 37°45' W 122°23'0 0.2
2018-Jun-10 02:00N 37°45' W 122°23'1 2.8
2018-Jun-10 01:31N 37°46' W 122°22'0 0.4
2018-Jun-10 01:01N 37°46' W 122°22'0 0.0
2018-Jun-10 00:30N 37°46' W 122°22'0 0.0
2018-Jun-10 00:00N 37°46' W 122°22'0 0.1
2018-Jun-09 23:30N 37°46' W 122°21'0 0.1
2018-Jun-09 23:01N 37°46' W 122°21'0 0.2
2018-Jun-09 22:30N 37°46' W 122°22'0 0.1
2018-Jun-09 22:00N 37°46' W 122°22'0 0.1
2018-Jun-09 21:30N 37°46' W 122°22'0 0.0
2018-Jun-09 21:01N 37°46' W 122°22'0 0.1
2018-Jun-09 20:30N 37°46' W 122°22'1 2.6
2018-Jun-09 20:00N 37°45' W 122°22'1 1.3
2018-Jun-09 19:30N 37°45' W 122°23'0 0.0
2018-Jun-09 19:00N 37°45' W 122°23'0 0.0
2018-Jun-09 18:30N 37°45' W 122°23'0 0.0
2018-Jun-09 18:00N 37°45' W 122°23'0 0.0
2018-Jun-09 17:30N 37°45' W 122°23'0 0.0
2018-Jun-09 17:00N 37°45' W 122°23'0 0.4
2018-Jun-09 16:30N 37°45' W 122°23'  
2018-Jun-07 04:03N 37°46' W 122°23'0 0.0
2018-Jun-07 04:00N 37°46' W 122°23'0 0.1
2018-Jun-07 03:30N 37°46' W 122°23'3 5.3
2018-Jun-07 03:00N 37°44' W 122°21'4 8.1
2018-Jun-07 02:30N 37°40' W 122°20'4 7.7
2018-Jun-07 02:00N 37°37' W 122°17'7 1.4
2018-Jun-06 20:52N 37°31' W 122°13'0 0.0
2018-Jun-06 20:27N 37°31' W 122°13'0 0.0
2018-Jun-06 15:43N 37°31' W 122°13'0 0.0
2018-Jun-06 15:16N 37°31' W 122°13'0 0.0
2018-Jun-06 13:57N 37°31' W 122°13'0 0.0
2018-Jun-06 08:30N 37°31' W 122°13'3 5.1
2018-Jun-06 08:00N 37°33' W 122°12'9 5.9
2018-Jun-06 06:33N 37°40' W 122°19'1 6.0
2018-Jun-06 06:23N 37°41' W 122°20'2 6.0
2018-Jun-06 06:00N 37°43' W 122°21'3 5.9
2018-Jun-06 05:30N 37°46' W 122°22'1 2.1
2018-Jun-06 05:00N 37°46' W 122°23'0 0.2
2018-Jun-06 04:30N 37°46' W 122°23'  

Dump ship's entire track history